TimeCST,TemperatureF,Dew PointF,Humidity,Sea Level PressureIn,VisibilityMPH,Wind Direction,Wind SpeedMPH,Gust SpeedMPH,PrecipitationIn,Events,Conditions,WindDirDegrees,DateUTC
12:04 AM,26.6,23.0,86,29.78,10.0,NNW,16.1,-,N/A,,Scattered Clouds,330,2013-01-30 06:04:00
12:54 AM,25.0,21.0,85,29.85,10.0,NNW,19.6,-,N/A,,Scattered Clouds,330,2013-01-30 06:54:00
1:54 AM,23.0,19.0,85,29.87,10.0,NNW,19.6,-,N/A,,Clear,330,2013-01-30 07:54:00
2:54 AM,21.9,18.0,85,29.91,10.0,NNW,18.4,-,N/A,,Clear,330,2013-01-30 08:54:00
3:54 AM,21.9,16.0,78,29.94,10.0,NNW,19.6,-,N/A,,Clear,330,2013-01-30 09:54:00
4:54 AM,21.9,18.0,85,29.96,10.0,NNW,20.7,-,N/A,,Clear,340,2013-01-30 10:54:00
5:43 AM,23.0,19.4,86,29.91,10.0,NNW,18.4,-,N/A,,Mostly Cloudy,340,2013-01-30 11:43:00
5:54 AM,24.1,19.9,84,29.98,10.0,NW,11.5,-,N/A,,Overcast,320,2013-01-30 11:54:00
6:54 AM,24.1,19.0,81,30.00,10.0,NW,12.7,-,N/A,,Overcast,310,2013-01-30 12:54:00
7:54 AM,24.1,18.0,77,30.02,10.0,NNW,17.3,-,N/A,,Overcast,340,2013-01-30 13:54:00
8:24 AM,21.2,15.8,80,29.97,10.0,NNW,15.0,-,N/A,,Scattered Clouds,330,2013-01-30 14:24:00
8:54 AM,19.9,15.1,81,30.06,10.0,NW,17.3,-,N/A,,Partly Cloudy,320,2013-01-30 14:54:00
9:54 AM,19.0,12.0,74,30.07,10.0,NW,15.0,23.0,N/A,,Clear,320,2013-01-30 15:54:00
10:54 AM,19.9,12.9,74,30.06,10.0,WNW,12.7,-,N/A,,Clear,290,2013-01-30 16:54:00
11:54 AM,23.0,14.0,68,30.06,10.0,WNW,16.1,-,N/A,,Clear,290,2013-01-30 17:54:00
12:54 PM,26.1,16.0,66,30.04,10.0,West,16.1,-,N/A,,Clear,270,2013-01-30 18:54:00
1:54 PM,28.9,19.0,67,30.00,10.0,West,13.8,-,N/A,,Clear,270,2013-01-30 19:54:00
2:54 PM,32.0,19.9,61,29.96,10.0,West,11.5,-,N/A,,Clear,260,2013-01-30 20:54:00
3:54 PM,35.1,19.9,54,29.96,10.0,WSW,15.0,-,N/A,,Clear,250,2013-01-30 21:54:00
4:54 PM,37.0,21.0,52,29.94,10.0,WSW,16.1,-,N/A,,Clear,250,2013-01-30 22:54:00
5:54 PM,35.1,19.9,54,29.95,10.0,West,8.1,-,N/A,,Clear,260,2013-01-30 23:54:00
6:54 PM,30.9,19.0,61,29.97,10.0,West,9.2,-,N/A,,Clear,280,2013-01-31 00:54:00
7:54 PM,28.0,19.9,72,30.00,10.0,West,9.2,-,N/A,,Clear,260,2013-01-31 01:54:00
8:54 PM,27.0,19.0,72,30.02,10.0,West,9.2,-,N/A,,Clear,270,2013-01-31 02:54:00
9:54 PM,26.1,19.0,75,30.02,10.0,West,8.1,-,N/A,,Clear,260,2013-01-31 03:54:00
10:54 PM,26.1,19.0,75,30.03,10.0,West,8.1,-,N/A,,Clear,260,2013-01-31 04:54:00
11:54 PM,27.0,18.0,69,30.03,10.0,West,6.9,-,N/A,,Clear,270,2013-01-31 05:54:00